createdAt,value
2023-04-02T00:01:36.751Z,4.10
2023-04-02T00:04:08.974Z,3.97
2023-04-02T00:06:45.051Z,4.10
2023-04-02T00:09:27.603Z,3.83
2023-04-02T00:11:55.884Z,4.53
2023-04-02T00:14:27.035Z,4.00
2023-04-02T00:16:56.729Z,3.95
2023-04-02T00:19:31.552Z,4.18
2023-04-02T00:22:02.013Z,4.38
2023-04-02T00:24:30.243Z,4.35
2023-04-02T00:26:58.391Z,4.32
2023-04-02T00:29:26.352Z,4.35
2023-04-02T00:31:55.543Z,5.15
2023-04-02T00:34:33.085Z,4.95
2023-04-02T00:37:03.172Z,5.32
2023-04-02T00:39:33.940Z,4.72
2023-04-02T00:42:05.804Z,5.60
2023-04-02T00:44:37.872Z,5.32
2023-04-02T00:47:14.945Z,4.55
2023-04-02T00:49:44.051Z,6.22
2023-04-02T00:52:16.851Z,5.60
2023-04-02T00:54:49.142Z,6.32
2023-04-02T00:57:23.236Z,7.25
2023-04-02T00:59:57.701Z,8.80
2023-04-02T01:02:29.571Z,7.45
2023-04-02T01:04:59.874Z,7.15
2023-04-02T01:07:50.031Z,8.32
2023-04-02T01:10:52.282Z,7.90
2023-04-02T01:13:27.726Z,6.80
2023-04-02T01:16:01.311Z,7.95
2023-04-02T01:18:39.739Z,6.78
2023-04-02T01:21:32.452Z,6.57
2023-04-02T01:24:06.000Z,7.70
2023-04-02T01:26:55.558Z,7.82
2023-04-02T01:29:28.550Z,6.85
2023-04-02T01:31:59.431Z,7.80
2023-04-02T01:34:29.259Z,7.43
2023-04-02T01:37:10.397Z,8.52
2023-04-02T01:39:52.014Z,8.40
2023-04-02T01:42:25.651Z,8.68
2023-04-02T01:45:01.857Z,8.45
2023-04-02T01:47:29.973Z,7.85
2023-04-02T01:50:00.018Z,8.68
2023-04-02T01:52:37.791Z,7.85
2023-04-02T01:55:07.650Z,8.77
2023-04-02T01:57:36.007Z,7.38
2023-04-02T02:00:12.409Z,8.50
2023-04-02T02:02:42.175Z,7.47
2023-04-02T02:05:14.580Z,9.00
2023-04-02T02:07:45.566Z,9.10
2023-04-02T02:10:18.242Z,8.60
2023-04-02T02:12:48.030Z,9.05
2023-04-02T02:15:19.449Z,7.97
2023-04-02T02:17:47.849Z,9.05
2023-04-02T02:20:16.601Z,8.77
2023-04-02T02:22:46.836Z,9.60
2023-04-02T02:25:18.481Z,9.82
2023-04-02T02:28:03.732Z,8.75
2023-04-02T02:30:36.356Z,10.35
2023-04-02T02:33:10.033Z,11.48
2023-04-02T02:35:44.230Z,10.23
2023-04-02T02:38:28.053Z,10.27
2023-04-02T02:41:05.774Z,12.05
2023-04-02T02:43:35.017Z,12.25
2023-04-02T02:46:05.559Z,10.82
2023-04-02T02:48:38.189Z,10.35
2023-04-02T02:51:11.736Z,11.52
2023-04-02T02:53:50.198Z,12.25
2023-04-02T02:56:19.647Z,11.05
2023-04-02T03:01:24.367Z,12.85
2023-04-02T03:03:56.363Z,12.70
2023-04-02T03:06:26.227Z,12.15
2023-04-02T03:09:04.960Z,11.75
2023-04-02T03:11:40.196Z,12.77
2023-04-02T03:14:21.299Z,13.75
2023-04-02T03:16:55.767Z,14.15
2023-04-02T03:19:30.601Z,13.73
2023-04-02T03:22:07.602Z,12.80
2023-04-02T03:24:47.995Z,13.13
2023-04-02T03:27:19.340Z,11.77
2023-04-02T03:29:58.576Z,11.73
2023-04-02T03:32:32.588Z,12.55
2023-04-02T03:35:06.546Z,11.40
2023-04-02T03:37:42.151Z,11.65
2023-04-02T03:40:16.454Z,11.45
2023-04-02T03:42:49.764Z,14.25
2023-04-02T03:45:22.888Z,13.65
2023-04-02T03:47:57.485Z,14.07
2023-04-02T03:50:29.838Z,16.08
2023-04-02T03:53:01.144Z,15.27
2023-04-02T03:58:03.282Z,15.60
2023-04-02T04:00:38.051Z,14.23
2023-04-02T04:03:13.911Z,15.93
2023-04-02T04:05:49.445Z,14.20
2023-04-02T04:08:20.880Z,15.38
2023-04-02T04:10:52.870Z,13.25
2023-04-02T04:13:30.076Z,13.20
2023-04-02T04:16:02.628Z,12.80
2023-04-02T04:18:37.855Z,11.40
2023-04-02T04:21:17.136Z,11.07
2023-04-02T04:23:51.443Z,12.85
2023-04-02T04:26:25.553Z,11.77
2023-04-02T04:29:09.711Z,13.25
2023-04-02T04:31:47.152Z,12.07
2023-04-02T04:34:19.950Z,12.05
2023-04-02T04:36:54.938Z,11.32
2023-04-02T04:39:34.772Z,12.30
2023-04-02T04:42:05.988Z,10.93
2023-04-02T04:44:41.291Z,13.73
2023-04-02T04:47:16.453Z,12.23
2023-04-02T04:49:48.807Z,11.85
2023-04-02T04:52:21.911Z,16.45
2023-04-02T04:54:52.172Z,15.88
2023-04-02T04:57:32.464Z,10.02
2023-04-02T05:00:08.067Z,9.55
2023-04-02T05:02:46.488Z,9.32
2023-04-02T05:05:26.245Z,9.70
2023-04-02T05:08:01.321Z,11.45
2023-04-02T05:10:37.422Z,9.45
2023-04-02T05:13:10.532Z,8.88
2023-04-02T05:15:42.866Z,9.63
2023-04-02T05:18:24.799Z,9.25
2023-04-02T05:21:01.409Z,10.00
2023-04-02T05:23:36.039Z,9.18
2023-04-02T05:26:10.411Z,9.15
2023-04-02T05:28:44.881Z,9.90
2023-04-02T05:31:19.964Z,8.32
2023-04-02T05:33:50.306Z,9.70
2023-04-02T05:38:54.855Z,9.77
2023-04-02T05:41:32.273Z,10.68
2023-04-02T05:44:08.952Z,10.05
2023-04-02T05:46:42.630Z,10.95
2023-04-02T05:49:18.794Z,10.35
2023-04-02T05:51:53.749Z,8.43
2023-04-02T05:54:27.908Z,8.88
2023-04-02T05:57:04.107Z,10.23
2023-04-02T05:59:35.245Z,9.90
2023-04-02T06:02:07.942Z,10.80
2023-04-02T06:04:46.438Z,9.90
2023-04-02T06:07:19.137Z,8.98
2023-04-02T06:09:57.365Z,9.45
2023-04-02T06:12:30.872Z,10.23
2023-04-02T06:15:00.307Z,10.77
2023-04-02T06:17:31.540Z,10.60
2023-04-02T06:20:02.556Z,9.23
2023-04-02T06:22:37.472Z,9.93
2023-04-02T06:25:14.605Z,9.18
2023-04-02T06:27:45.782Z,10.55
2023-04-02T06:30:19.673Z,10.00
2023-04-02T06:32:50.599Z,11.05
2023-04-02T06:35:19.820Z,12.45
2023-04-02T06:38:02.354Z,11.98
2023-04-02T06:40:41.733Z,12.43
2023-04-02T06:43:36.380Z,11.70
2023-04-02T06:46:23.237Z,13.93
2023-04-02T06:49:18.697Z,12.15
2023-04-02T06:51:51.920Z,12.95
2023-04-02T06:54:22.474Z,13.05
2023-04-02T06:56:57.180Z,13.40
2023-04-02T06:59:32.918Z,13.13
2023-04-02T07:02:06.627Z,11.80
2023-04-02T07:04:35.470Z,13.60
2023-04-02T07:07:04.220Z,13.40
2023-04-02T07:09:37.726Z,13.45
2023-04-02T07:12:12.451Z,12.85
2023-04-02T07:14:40.870Z,13.75
2023-04-02T07:17:16.837Z,13.25
2023-04-02T07:19:49.359Z,12.73
2023-04-02T07:22:19.901Z,13.77
2023-04-02T07:24:53.429Z,11.82
2023-04-02T07:27:21.307Z,12.32
2023-04-02T07:29:49.144Z,12.82
2023-04-02T07:32:17.376Z,13.77
2023-04-02T07:34:45.420Z,11.23
2023-04-02T07:37:15.223Z,10.95
2023-04-02T07:39:43.106Z,10.18
2023-04-02T07:42:12.318Z,10.32
2023-04-02T07:47:08.632Z,9.65
2023-04-02T07:49:36.494Z,9.30
2023-04-02T07:52:04.461Z,9.68
2023-04-02T07:54:32.366Z,9.02
2023-04-02T07:57:00.267Z,8.18
2023-04-02T07:59:29.539Z,8.38
2023-04-02T08:01:57.894Z,8.43
2023-04-02T08:04:25.947Z,8.80
2023-04-02T08:06:53.940Z,11.93
2023-04-02T08:09:21.952Z,10.85
2023-04-02T08:11:49.801Z,10.85
2023-04-02T08:14:17.684Z,11.20
2023-04-02T08:16:49.236Z,11.27
2023-04-02T08:19:17.355Z,12.25
2023-04-02T08:21:45.685Z,12.45
2023-04-02T08:24:13.730Z,13.13
2023-04-02T08:26:43.038Z,12.13
2023-04-02T08:29:12.442Z,12.00
2023-04-02T08:31:40.373Z,12.30
2023-04-02T08:34:09.657Z,12.52
2023-04-02T08:39:10.914Z,12.82
2023-04-02T08:41:43.082Z,14.57
2023-04-02T08:44:20.979Z,11.95
2023-04-02T08:46:53.097Z,11.77
2023-04-02T08:49:29.159Z,11.18
2023-04-02T08:51:57.115Z,10.27
2023-04-02T08:54:28.105Z,10.30
2023-04-02T08:56:59.612Z,10.27
2023-04-02T08:59:33.710Z,9.38
2023-04-02T09:02:13.248Z,9.70
2023-04-02T09:04:42.658Z,9.55
2023-04-02T09:07:13.805Z,10.05
2023-04-02T09:09:41.843Z,10.65
2023-04-02T09:12:19.302Z,10.43
2023-04-02T09:14:59.566Z,11.48
2023-04-02T09:17:29.208Z,10.15
2023-04-02T09:20:06.413Z,10.18
2023-04-02T09:22:35.892Z,11.85
2023-04-02T09:25:06.442Z,11.35
2023-04-02T09:27:36.418Z,10.57
2023-04-02T09:30:13.739Z,8.43
2023-04-02T09:32:50.089Z,7.05
2023-04-02T09:35:27.181Z,7.57
2023-04-02T09:38:20.474Z,7.20
2023-04-02T09:40:52.180Z,7.55
2023-04-02T09:43:22.596Z,7.00
2023-04-02T09:45:59.412Z,7.22
2023-04-02T09:48:31.360Z,7.72
2023-04-02T09:51:08.171Z,7.30
2023-04-02T09:53:37.426Z,6.75
2023-04-02T09:56:10.039Z,7.97
2023-04-02T09:58:37.935Z,8.05
2023-04-02T10:01:08.504Z,7.95
2023-04-02T10:03:36.644Z,7.38
2023-04-02T10:06:11.084Z,8.68
2023-04-02T10:08:41.466Z,9.13
2023-04-02T10:11:11.968Z,8.77
2023-04-02T10:13:49.987Z,9.35
2023-04-02T10:16:24.922Z,7.03
2023-04-02T10:18:56.860Z,8.13
2023-04-02T10:21:27.785Z,8.02
2023-04-02T10:23:58.319Z,6.43
2023-04-02T10:26:43.418Z,7.15
2023-04-02T10:29:25.044Z,7.18
2023-04-02T10:32:00.587Z,5.97
2023-04-02T10:34:37.789Z,6.20
2023-04-02T10:37:26.689Z,5.30
2023-04-02T10:39:58.405Z,5.53
2023-04-02T10:42:32.168Z,5.80
2023-04-02T10:45:04.809Z,6.43
2023-04-02T10:47:41.139Z,5.80
2023-04-02T10:50:29.431Z,5.82
2023-04-02T10:53:05.437Z,5.33
2023-04-02T10:55:40.910Z,6.03
2023-04-02T10:58:19.356Z,6.28
2023-04-02T11:00:48.393Z,7.23
2023-04-02T11:03:24.316Z,7.97
2023-04-02T11:05:53.353Z,7.47
2023-04-02T11:08:27.324Z,7.53
2023-04-02T11:10:59.547Z,7.35
2023-04-02T11:13:32.369Z,7.18
2023-04-02T11:16:00.531Z,8.68
2023-04-02T11:18:34.141Z,7.40
2023-04-02T11:21:04.824Z,8.60
2023-04-02T11:23:36.825Z,9.07
2023-04-02T11:26:38.660Z,6.85
2023-04-02T11:29:15.735Z,9.13
2023-04-02T11:31:44.840Z,8.27
2023-04-02T11:34:37.141Z,9.25
2023-04-02T11:37:10.429Z,10.60
2023-04-02T11:39:57.251Z,10.68
2023-04-02T11:42:29.434Z,8.90
2023-04-02T11:45:01.117Z,8.65
2023-04-02T11:47:30.036Z,8.63
2023-04-02T11:52:33.704Z,7.03
2023-04-02T11:55:22.269Z,8.57
2023-04-02T11:58:03.174Z,7.65
2023-04-02T12:01:01.176Z,10.75
2023-04-02T12:03:58.456Z,7.07
2023-04-02T12:06:39.686Z,7.95
2023-04-02T12:09:20.408Z,9.10
2023-04-02T12:11:51.047Z,9.10
2023-04-02T12:14:48.070Z,6.65
2023-04-02T12:17:19.624Z,6.85
2023-04-02T12:19:50.051Z,6.35
2023-04-02T12:22:22.926Z,6.72
2023-04-02T12:24:55.745Z,5.90
2023-04-02T12:27:27.661Z,6.18
2023-04-02T12:29:56.243Z,7.07
2023-04-02T12:32:29.927Z,9.33
2023-04-02T12:35:05.069Z,7.47
2023-04-02T12:37:33.324Z,6.80
2023-04-02T12:40:07.157Z,5.30
2023-04-02T12:42:37.099Z,5.78
2023-04-02T12:45:06.783Z,5.90
2023-04-02T12:47:34.945Z,5.60
2023-04-02T12:50:03.454Z,6.00
2023-04-02T12:52:32.667Z,5.70
2023-04-02T12:55:05.029Z,5.82
2023-04-02T12:57:40.684Z,4.72
2023-04-02T13:00:34.151Z,5.85
2023-04-02T13:03:17.379Z,4.90
2023-04-02T13:05:48.497Z,5.38
2023-04-02T13:08:19.817Z,5.30
2023-04-02T13:10:54.002Z,5.05
2023-04-02T13:13:28.222Z,4.70
2023-04-02T13:16:04.725Z,5.10
2023-04-02T13:18:34.318Z,4.55
2023-04-02T13:21:03.853Z,4.05
2023-04-02T13:23:35.175Z,4.07
2023-04-02T13:26:13.008Z,4.53
2023-04-02T13:28:41.032Z,4.22
2023-04-02T13:31:14.611Z,6.20
2023-04-02T13:33:42.545Z,5.07
2023-04-02T13:36:14.212Z,5.75
2023-04-02T13:38:42.321Z,4.85
2023-04-02T13:41:22.415Z,5.50
2023-04-02T13:43:51.083Z,5.28
2023-04-02T13:46:22.588Z,4.50
2023-04-02T13:48:51.300Z,5.90
2023-04-02T13:51:20.428Z,4.68
2023-04-02T13:53:50.392Z,4.88
2023-04-02T13:56:19.684Z,4.78
2023-04-02T14:01:16.022Z,4.50
2023-04-02T14:03:45.448Z,4.97
2023-04-02T14:08:55.836Z,4.15
2023-04-02T14:11:33.472Z,4.07
2023-04-02T14:14:18.050Z,3.30
2023-04-02T14:16:56.318Z,4.22
2023-04-02T14:19:46.322Z,4.13
2023-04-02T14:22:29.156Z,4.65
2023-04-02T14:25:07.655Z,4.07
2023-04-02T14:27:45.518Z,4.20
2023-04-02T14:30:19.449Z,4.00
2023-04-02T14:32:56.733Z,4.63
2023-04-02T14:35:34.812Z,3.67
2023-04-02T14:38:11.736Z,4.60
2023-04-02T14:40:43.933Z,4.03
2023-04-02T14:43:17.677Z,3.88
2023-04-02T14:45:57.376Z,4.10
2023-04-02T14:48:33.829Z,4.00
2023-04-02T14:51:06.283Z,3.58
2023-04-02T14:53:44.236Z,3.70
2023-04-02T14:56:14.900Z,3.88
2023-04-02T14:58:48.335Z,3.47
2023-04-02T15:01:22.695Z,3.58
2023-04-02T15:03:56.601Z,3.60
2023-04-02T15:06:27.341Z,3.47
2023-04-02T15:09:08.918Z,3.03
2023-04-02T15:11:39.166Z,3.40
2023-04-02T15:14:15.435Z,3.40
2023-04-02T15:16:47.634Z,3.10
2023-04-02T15:19:17.852Z,3.28
2023-04-02T15:21:59.523Z,3.08
2023-04-02T15:24:38.970Z,3.13
2023-04-02T15:27:25.470Z,3.30
2023-04-02T15:30:03.662Z,2.92
2023-04-02T15:32:38.660Z,3.22
2023-04-02T15:35:22.494Z,2.90
2023-04-02T15:37:59.632Z,3.83
2023-04-02T15:40:46.122Z,4.07
2023-04-02T15:43:20.662Z,3.33
2023-04-02T15:46:11.842Z,3.40
2023-04-02T15:48:59.975Z,2.95
2023-04-02T15:51:40.281Z,2.92
2023-04-02T15:54:20.630Z,3.10
2023-04-02T15:56:57.870Z,2.83
2023-04-02T15:59:57.517Z,2.90
2023-04-02T16:02:42.741Z,4.28
2023-04-02T16:05:19.061Z,3.00
2023-04-02T16:08:00.308Z,2.80
2023-04-02T16:10:41.816Z,3.40
2023-04-02T16:13:17.943Z,2.67
2023-04-02T16:15:52.106Z,3.63
2023-04-02T16:18:31.590Z,3.10
2023-04-02T16:21:02.939Z,3.20
2023-04-02T16:23:34.980Z,2.85
2023-04-02T16:26:10.617Z,2.90
2023-04-02T16:28:47.736Z,3.20
2023-04-02T16:31:26.336Z,2.83
2023-04-02T16:34:03.440Z,3.30
2023-04-02T16:36:50.083Z,3.30
2023-04-02T16:39:29.110Z,2.83
2023-04-02T16:42:05.384Z,2.80
2023-04-02T16:44:50.259Z,3.30
2023-04-02T16:47:46.100Z,3.00
2023-04-02T16:50:25.535Z,2.97
2023-04-02T16:52:59.127Z,3.10
2023-04-02T16:55:39.216Z,2.92
2023-04-02T16:58:22.893Z,3.40
2023-04-02T17:00:56.993Z,3.50
2023-04-02T17:03:48.598Z,3.83
2023-04-02T17:06:28.438Z,3.50
2023-04-02T17:09:04.324Z,3.17
2023-04-02T17:11:37.512Z,3.90
2023-04-02T17:14:07.411Z,2.95
2023-04-02T17:16:42.579Z,3.83
2023-04-02T17:19:12.776Z,4.18
2023-04-02T17:21:45.117Z,4.00
2023-04-02T17:24:20.659Z,3.90
2023-04-02T17:26:52.219Z,3.20
2023-04-02T17:29:24.574Z,3.08
2023-04-02T17:31:54.712Z,3.30
2023-04-02T17:34:23.978Z,3.22
2023-04-02T17:37:03.797Z,2.53
2023-04-02T17:39:39.291Z,3.20
2023-04-02T17:42:15.433Z,2.40
2023-04-02T17:44:52.112Z,2.60
2023-04-02T17:47:23.414Z,3.45
2023-04-02T17:50:05.680Z,3.28
2023-04-02T17:52:40.470Z,2.67
2023-04-02T17:55:18.664Z,2.40
2023-04-02T17:58:01.300Z,2.72
2023-04-02T18:00:58.525Z,2.90
2023-04-02T18:03:41.591Z,3.10
2023-04-02T18:06:16.999Z,3.10
2023-04-02T18:09:00.590Z,3.25
2023-04-02T18:11:35.634Z,2.92
2023-04-02T18:14:17.596Z,3.28
2023-04-02T18:16:51.332Z,2.72
2023-04-02T18:19:23.899Z,2.38
2023-04-02T18:21:59.882Z,2.40
2023-04-02T18:25:00.386Z,3.35
2023-04-02T18:27:43.313Z,2.95
2023-04-02T18:30:19.789Z,2.75
2023-04-02T18:33:19.905Z,2.70
2023-04-02T18:35:59.698Z,3.42
2023-04-02T18:41:13.632Z,4.40
2023-04-02T18:43:51.888Z,4.20
2023-04-02T18:46:29.815Z,4.22
2023-04-02T18:49:01.149Z,4.32
2023-04-02T18:51:33.317Z,4.00
2023-04-02T18:54:11.794Z,3.38
2023-04-02T18:56:42.536Z,3.83
2023-04-02T18:59:31.540Z,3.70
2023-04-02T19:02:04.393Z,3.63
2023-04-02T19:04:33.847Z,3.30
2023-04-02T19:07:05.017Z,3.50
2023-04-02T19:09:35.874Z,3.40
2023-04-02T19:12:13.809Z,3.85
2023-04-02T19:14:41.813Z,4.28
2023-04-02T19:17:18.067Z,4.10
2023-04-02T19:19:56.926Z,4.88
2023-04-02T19:22:39.503Z,7.03
2023-04-02T19:25:30.058Z,5.13
2023-04-02T19:28:09.454Z,5.80
2023-04-02T19:30:47.554Z,4.50
2023-04-02T19:33:30.525Z,4.18
2023-04-02T19:36:01.828Z,4.13
2023-04-02T19:38:46.429Z,3.60
2023-04-02T19:41:27.265Z,4.18
2023-04-02T19:43:57.091Z,3.78
2023-04-02T19:46:27.124Z,3.60
2023-04-02T19:49:03.181Z,3.90
2023-04-02T19:51:31.155Z,3.55
2023-04-02T19:53:59.144Z,3.63
2023-04-02T19:56:27.849Z,3.53
2023-04-02T19:58:58.296Z,4.15
2023-04-02T20:01:28.147Z,3.50
2023-04-02T20:03:56.169Z,3.13
2023-04-02T20:06:24.144Z,3.30
2023-04-02T20:08:52.086Z,3.83
2023-04-02T20:11:20.206Z,3.40
2023-04-02T20:13:50.047Z,3.15
2023-04-02T20:16:19.644Z,2.60
2023-04-02T20:18:47.673Z,3.38
2023-04-02T20:21:15.734Z,3.45
2023-04-02T20:23:43.689Z,3.92
2023-04-02T20:26:12.731Z,2.95
2023-04-02T20:28:40.967Z,2.97
2023-04-02T20:31:11.229Z,3.28
2023-04-02T20:33:40.841Z,3.60
2023-04-02T20:36:10.758Z,2.75
2023-04-02T20:38:38.765Z,3.28
2023-04-02T20:41:08.231Z,2.60
2023-04-02T20:43:37.456Z,3.13
2023-04-02T20:46:08.919Z,3.08
2023-04-02T20:48:37.654Z,3.63
2023-04-02T20:51:08.448Z,3.05
2023-04-02T20:53:37.903Z,3.58
2023-04-02T20:56:06.705Z,2.85
2023-04-02T20:58:35.450Z,3.45
2023-04-02T21:01:08.583Z,3.95
2023-04-02T21:03:36.601Z,3.42
2023-04-02T21:06:06.066Z,3.90
2023-04-02T21:08:33.955Z,4.00
2023-04-02T21:11:06.531Z,3.83
2023-04-02T21:13:36.761Z,3.83
2023-04-02T21:16:05.995Z,4.00
2023-04-02T21:21:04.010Z,5.30
2023-04-02T21:23:34.459Z,4.45
2023-04-02T21:26:06.279Z,4.38
2023-04-02T21:28:34.517Z,4.10
2023-04-02T21:31:04.500Z,4.15
2023-04-02T21:33:36.219Z,4.75
2023-04-02T21:36:08.414Z,4.22
2023-04-02T21:38:38.469Z,4.38
2023-04-02T21:41:17.183Z,4.35
2023-04-02T21:43:45.968Z,4.15
2023-04-02T21:46:13.928Z,4.45
2023-04-02T21:48:41.957Z,4.47
2023-04-02T21:51:11.886Z,4.10
2023-04-02T21:53:42.169Z,3.97
2023-04-02T21:56:13.186Z,4.47
2023-04-02T21:58:41.576Z,4.13
2023-04-02T22:01:16.837Z,3.87
2023-04-02T22:03:52.402Z,4.28
2023-04-02T22:06:21.636Z,3.75
2023-04-02T22:08:54.318Z,5.05
2023-04-02T22:11:24.277Z,4.72
2023-04-02T22:13:52.262Z,4.72
2023-04-02T22:16:22.276Z,5.75
2023-04-02T22:18:51.445Z,5.43
2023-04-02T22:21:20.338Z,4.95
2023-04-02T22:23:50.363Z,4.85
2023-04-02T22:26:20.069Z,5.05
2023-04-02T22:28:48.222Z,5.10
2023-04-02T22:31:18.523Z,5.03
2023-04-02T22:33:47.627Z,3.70
2023-04-02T22:36:17.035Z,4.43
2023-04-02T22:41:15.549Z,4.78
2023-04-02T22:43:44.992Z,5.00
2023-04-02T22:46:14.528Z,4.10
2023-04-02T22:48:42.972Z,5.03
2023-04-02T22:51:12.244Z,4.43
2023-04-02T22:53:41.560Z,4.30
2023-04-02T22:58:39.508Z,4.00
2023-04-02T23:01:09.595Z,4.70
2023-04-02T23:03:37.492Z,5.00
2023-04-02T23:06:07.466Z,4.80
2023-04-02T23:08:35.512Z,4.35
2023-04-02T23:11:04.647Z,5.07
2023-04-02T23:13:33.076Z,4.63
2023-04-02T23:16:03.378Z,4.20
2023-04-02T23:18:32.907Z,3.97
2023-04-02T23:21:01.178Z,4.05
2023-04-02T23:23:29.384Z,4.28
2023-04-02T23:26:07.441Z,4.40
2023-04-02T23:28:36.697Z,3.95
2023-04-02T23:31:08.292Z,3.67
2023-04-02T23:33:36.457Z,3.78
2023-04-02T23:36:08.841Z,4.60
2023-04-02T23:38:36.864Z,4.00
2023-04-02T23:41:04.954Z,3.72
2023-04-02T23:43:33.004Z,3.70
2023-04-02T23:46:01.065Z,3.25
2023-04-02T23:48:30.226Z,3.03
2023-04-02T23:50:58.101Z,2.70
2023-04-02T23:53:26.135Z,2.83
2023-04-02T23:55:54.011Z,2.90
2023-04-02T23:58:21.781Z,3.10
